Time;durP1;ratioP1;P1;durP2;ratioP2;P2;SDS_P1;SDS_P2;PMS_P1;PMS_P2;Temp;Humidity;BMP_temperature;BMP_pressure;BME280_temperature;BME280_humidity;BME280_pressure;Samples;Min_cycle;Max_cycle;Signal;HPM_P1;HPM_P2
2022/06/14 00:00:56;;;;;;;7.20;2.97;;;;;;;;;;5115388;27;20774;-74
2022/06/14 00:03:24;;;;;;;5.03;2.87;;;;;;;;;;5121395;27;20768;-74
2022/06/14 00:05:52;;;;;;;6.40;2.90;;;;;;;;;;5093408;28;20270;-75
2022/06/14 00:08:20;;;;;;;6.20;3.00;;;;;;;;;;5111403;28;20281;-74
2022/06/14 00:10:48;;;;;;;7.23;2.70;;;;;;;;;;5101259;28;20354;-74
2022/06/14 00:13:16;;;;;;;6.57;2.83;;;;;;;;;;5109797;28;20232;-74
2022/06/14 00:15:45;;;;;;;5.27;2.80;;;;;;;;;;5119568;27;20752;-74
2022/06/14 00:18:13;;;;;;;6.27;2.73;;;;;;;;;;5096679;27;20665;-74
2022/06/14 00:20:40;;;;;;;7.37;3.17;;;;;;;;;;5091266;28;20234;-74
2022/06/14 00:23:07;;;;;;;6.03;3.20;;;;;;;;;;5094809;28;20233;-74
2022/06/14 00:25:36;;;;;;;6.20;3.20;;;;;;;;;;5115893;27;20223;-73
2022/06/14 00:28:04;;;;;;;8.23;3.00;;;;;;;;;;5110854;28;20204;-73
2022/06/14 00:30:32;;;;;;;9.20;3.00;;;;;;;;;;5110354;28;20232;-74
2022/06/14 00:33:01;;;;;;;6.93;2.77;;;;;;;;;;5103352;28;20236;-74
2022/06/14 00:35:28;;;;;;;6.07;2.83;;;;;;;;;;5097393;27;20539;-74
2022/06/14 00:37:55;;;;;;;5.87;2.93;;;;;;;;;;5128641;27;20247;-74
2022/06/14 00:40:24;;;;;;;6.67;2.67;;;;;;;;;;5111113;28;20223;-74
2022/06/14 00:42:51;;;;;;;6.10;2.80;;;;;;;;;;5104994;28;20287;-74
2022/06/14 00:45:37;;;;;;;5.63;2.80;;;;;;;;;;5110271;27;20263;-74
2022/06/14 00:48:08;;;;;;;8.03;2.93;;;;;;;;;;5110462;28;20258;-74
2022/06/14 00:50:38;;;;;;;4.33;2.77;;;;;;;;;;5111012;28;20197;-74
2022/06/14 00:53:08;;;;;;;4.27;2.20;;;;;;;;;;5110341;28;20308;-74
2022/06/14 00:55:37;;;;;;;7.63;2.90;;;;;;;;;;5090161;28;20546;-74
2022/06/14 00:58:06;;;;;;;7.00;2.50;;;;;;;;;;5099432;28;20291;-74
2022/06/14 01:00:36;;;;;;;7.57;3.17;;;;;;;;;;5106849;28;20221;-74
2022/06/14 01:03:16;;;;;;;6.00;2.67;;;;;;;;;;5100577;28;20645;-74
2022/06/14 01:08:46;;;;;;;5.73;2.50;;;;;;;;;;5041436;28;20219;-74
2022/06/14 01:11:15;;;;;;;7.33;2.50;;;;;;;;;;5046281;28;20227;-74
2022/06/14 01:13:42;;;;;;;6.30;2.77;;;;;;;;;;5047260;28;20702;-74
2022/06/14 01:16:11;;;;;;;4.73;2.43;;;;;;;;;;5045940;28;20234;-74
2022/06/14 01:18:38;;;;;;;5.00;2.40;;;;;;;;;;5047712;28;20256;-74
2022/06/14 01:21:07;;;;;;;6.77;2.60;;;;;;;;;;5046981;28;20299;-74
2022/06/14 01:23:36;;;;;;;6.37;2.50;;;;;;;;;;5047772;28;20209;-74
2022/06/14 01:26:08;;;;;;;6.30;2.97;;;;;;;;;;5051735;28;20251;-74
2022/06/14 01:28:35;;;;;;;6.13;2.47;;;;;;;;;;5047419;28;20285;-74
2022/06/14 01:31:05;;;;;;;7.57;2.57;;;;;;;;;;5047884;28;20297;-74
2022/06/14 01:33:35;;;;;;;5.97;2.40;;;;;;;;;;5047185;28;20203;-74
2022/06/14 01:36:03;;;;;;;5.90;2.57;;;;;;;;;;5057253;28;20289;-74
2022/06/14 01:38:31;;;;;;;5.93;2.50;;;;;;;;;;5054433;28;20287;-74
2022/06/14 01:41:04;;;;;;;7.53;2.63;;;;;;;;;;5046397;28;20290;-74
2022/06/14 01:43:49;;;;;;;6.90;2.90;;;;;;;;;;5064132;27;20234;-74
2022/06/14 01:46:21;;;;;;;7.90;2.40;;;;;;;;;;5101800;28;20220;-74
2022/06/14 01:48:50;;;;;;;6.47;2.70;;;;;;;;;;5105054;27;20754;-75
2022/06/14 01:54:09;;;;;;;6.80;2.90;;;;;;;;;;5134781;27;20201;-74
2022/06/14 01:56:42;;;;;;;7.50;2.50;;;;;;;;;;5134846;27;20192;-75
2022/06/14 01:59:12;;;;;;;4.60;2.70;;;;;;;;;;5125828;27;20657;-75
2022/06/14 02:01:46;;;;;;;6.67;2.50;;;;;;;;;;5100696;28;20312;-75
2022/06/14 02:07:05;;;;;;;4.67;2.00;;;;;;;;;;5127654;27;20237;-75
2022/06/14 02:09:35;;;;;;;7.67;2.60;;;;;;;;;;5115751;27;20689;-75
2022/06/14 02:12:04;;;;;;;6.63;2.60;;;;;;;;;;5111165;27;20211;-75
2022/06/14 02:14:35;;;;;;;6.50;2.10;;;;;;;;;;5092726;28;20639;-75
2022/06/14 02:17:05;;;;;;;5.50;2.50;;;;;;;;;;5112744;27;20287;-75
2022/06/14 02:19:35;;;;;;;6.57;2.40;;;;;;;;;;5113866;27;20283;-75
2022/06/14 02:22:06;;;;;;;5.83;2.00;;;;;;;;;;5128550;27;20220;-75
2022/06/14 02:24:37;;;;;;;4.57;2.17;;;;;;;;;;5112265;27;20234;-75
2022/06/14 02:27:10;;;;;;;7.87;2.53;;;;;;;;;;5093204;28;20669;-75
2022/06/14 02:29:41;;;;;;;5.57;2.10;;;;;;;;;;5094091;27;20747;-74
2022/06/14 02:32:12;;;;;;;6.63;2.30;;;;;;;;;;5119684;27;20231;-75
2022/06/14 02:34:42;;;;;;;5.53;2.60;;;;;;;;;;5101947;28;20637;-75
2022/06/14 02:37:11;;;;;;;8.10;2.80;;;;;;;;;;5092379;27;20698;-75
2022/06/14 02:39:40;;;;;;;3.03;2.03;;;;;;;;;;5117366;27;20306;-75
2022/06/14 02:42:10;;;;;;;7.60;2.47;;;;;;;;;;5112306;28;20257;-75
2022/06/14 02:44:39;;;;;;;5.50;2.70;;;;;;;;;;5109131;28;20218;-75
2022/06/14 02:47:11;;;;;;;4.87;2.57;;;;;;;;;;5112846;28;20308;-75
2022/06/14 02:49:40;;;;;;;6.63;2.57;;;;;;;;;;5112957;28;20205;-75
2022/06/14 02:52:12;;;;;;;5.57;2.30;;;;;;;;;;5113077;28;20287;-75
2022/06/14 02:54:42;;;;;;;6.17;2.53;;;;;;;;;;5098999;28;20245;-75
2022/06/14 02:57:14;;;;;;;4.47;2.20;;;;;;;;;;5115448;27;20291;-75
2022/06/14 02:59:44;;;;;;;7.27;2.80;;;;;;;;;;5130259;27;20287;-75
2022/06/14 03:02:14;;;;;;;7.70;2.60;;;;;;;;;;5101689;27;20304;-75
2022/06/14 03:04:45;;;;;;;4.53;2.27;;;;;;;;;;5112399;27;20294;-75
2022/06/14 03:07:15;;;;;;;5.53;2.60;;;;;;;;;;5103683;27;20310;-75
2022/06/14 03:09:43;;;;;;;5.70;2.27;;;;;;;;;;5112098;28;20240;-75
2022/06/14 03:12:16;;;;;;;5.63;2.70;;;;;;;;;;5107856;27;20239;-74
2022/06/14 03:14:51;;;;;;;5.93;2.60;;;;;;;;;;5110694;27;20698;-74
2022/06/14 03:17:22;;;;;;;5.20;2.23;;;;;;;;;;5132717;27;20762;-74
2022/06/14 03:19:52;;;;;;;6.37;2.20;;;;;;;;;;5132252;27;20287;-75
2022/06/14 03:22:22;;;;;;;4.53;2.30;;;;;;;;;;5130829;27;20292;-74
2022/06/14 03:24:55;;;;;;;7.57;2.50;;;;;;;;;;5119456;27;20237;-74
2022/06/14 03:27:26;;;;;;;9.13;2.60;;;;;;;;;;5105957;27;20323;-74
2022/06/14 03:29:57;;;;;;;6.70;2.40;;;;;;;;;;5091749;28;20308;-74
2022/06/14 03:32:27;;;;;;;5.63;2.50;;;;;;;;;;5091315;28;20231;-74
2022/06/14 03:34:57;;;;;;;7.73;2.67;;;;;;;;;;5096029;28;20296;-74
2022/06/14 03:37:24;;;;;;;9.40;2.60;;;;;;;;;;5111881;28;20238;-74
2022/06/14 03:39:54;;;;;;;4.20;2.60;;;;;;;;;;5093190;28;20290;-74
2022/06/14 03:42:21;;;;;;;7.70;2.93;;;;;;;;;;5091363;28;20208;-74
2022/06/14 03:44:50;;;;;;;4.90;2.70;;;;;;;;;;5099666;28;20965;-74
2022/06/14 03:47:19;;;;;;;4.33;2.53;;;;;;;;;;5111040;28;20831;-74
2022/06/14 03:49:49;;;;;;;4.90;2.50;;;;;;;;;;5118645;27;20289;-74
2022/06/14 03:52:24;;;;;;;4.33;2.73;;;;;;;;;;5132036;27;20288;-74
2022/06/14 03:54:54;;;;;;;5.67;2.67;;;;;;;;;;5111665;27;20204;-74
2022/06/14 03:57:27;;;;;;;6.60;2.50;;;;;;;;;;5098745;28;20357;-74
2022/06/14 04:00:16;;;;;;;7.03;2.70;;;;;;;;;;5108771;28;20556;-74
2022/06/14 04:02:54;;;;;;;6.67;2.70;;;;;;;;;;5092689;28;20229;-74
2022/06/14 04:05:25;;;;;;;5.63;2.40;;;;;;;;;;5102582;28;20288;-74
2022/06/14 04:07:55;;;;;;;6.20;2.73;;;;;;;;;;5099909;28;20313;-74
2022/06/14 04:10:29;;;;;;;5.87;2.90;;;;;;;;;;5105844;28;20693;-75
2022/06/14 04:13:04;;;;;;;7.90;3.00;;;;;;;;;;5090670;28;20197;-74
2022/06/14 04:15:35;;;;;;;4.57;2.23;;;;;;;;;;5090441;28;20244;-74
2022/06/14 04:18:34;;;;;;;6.27;2.40;;;;;;;;;;5090533;28;20801;-74
2022/06/14 04:20:57;;;;;;;5.03;2.20;;;;;;;;;;5090414;28;20220;-75
2022/06/14 04:23:29;;;;;;;7.00;2.60;;;;;;;;;;5107239;28;20217;-74
2022/06/14 04:26:02;;;;;;;6.97;2.63;;;;;;;;;;5116620;27;20298;-74
2022/06/14 04:28:33;;;;;;;6.97;2.77;;;;;;;;;;5131354;27;20824;-74
2022/06/14 04:31:02;;;;;;;8.97;3.00;;;;;;;;;;5107801;27;20561;-74
2022/06/14 04:33:32;;;;;;;9.80;2.63;;;;;;;;;;5090306;28;20229;-74
2022/06/14 04:36:02;;;;;;;6.37;2.93;;;;;;;;;;5103753;28;20306;-74
2022/06/14 04:38:31;;;;;;;5.50;2.40;;;;;;;;;;5099979;28;20194;-74
2022/06/14 04:41:02;;;;;;;6.17;2.70;;;;;;;;;;5104573;28;20679;-75
2022/06/14 04:43:33;;;;;;;6.50;2.53;;;;;;;;;;5110601;28;20381;-74
2022/06/14 04:46:02;;;;;;;5.60;2.77;;;;;;;;;;5099718;28;20309;-74
2022/06/14 04:48:34;;;;;;;6.20;2.87;;;;;;;;;;5105314;28;20614;-74
2022/06/14 04:51:03;;;;;;;5.27;2.60;;;;;;;;;;5116953;27;20200;-74
2022/06/14 04:53:35;;;;;;;7.00;2.60;;;;;;;;;;5102021;27;20693;-74
2022/06/14 04:56:04;;;;;;;6.77;2.67;;;;;;;;;;5095815;28;20200;-74
2022/06/14 04:58:36;;;;;;;5.30;2.53;;;;;;;;;;5089731;28;20244;-74
2022/06/14 05:01:07;;;;;;;4.57;2.40;;;;;;;;;;5099985;28;20380;-75
2022/06/14 05:03:38;;;;;;;5.70;2.47;;;;;;;;;;5137205;27;20206;-75
2022/06/14 05:06:08;;;;;;;4.90;2.43;;;;;;;;;;5109087;28;20283;-75
2022/06/14 05:08:36;;;;;;;4.73;2.60;;;;;;;;;;5091903;28;20631;-74
2022/06/14 05:11:08;;;;;;;5.27;2.60;;;;;;;;;;5097349;28;20286;-75
2022/06/14 05:13:40;;;;;;;6.97;2.70;;;;;;;;;;5109377;28;20254;-74
2022/06/14 05:16:08;;;;;;;6.40;2.50;;;;;;;;;;5096236;28;20254;-75
2022/06/14 05:18:40;;;;;;;6.23;2.50;;;;;;;;;;5093612;28;20250;-75
2022/06/14 05:21:11;;;;;;;3.83;2.50;;;;;;;;;;5128275;27;20249;-75
2022/06/14 05:23:43;;;;;;;4.80;2.53;;;;;;;;;;5115789;27;20288;-75
2022/06/14 05:26:20;;;;;;;5.67;2.40;;;;;;;;;;5112644;27;20319;-75
2022/06/14 05:28:54;;;;;;;4.40;2.30;;;;;;;;;;5127764;27;20197;-75
2022/06/14 05:31:27;;;;;;;5.40;2.70;;;;;;;;;;5125871;27;20315;-74
2022/06/14 05:33:58;;;;;;;4.20;2.30;;;;;;;;;;5143936;27;20213;-74
2022/06/14 05:36:28;;;;;;;6.63;2.53;;;;;;;;;;5108920;28;20247;-75
2022/06/14 05:38:58;;;;;;;6.57;2.00;;;;;;;;;;5117764;27;20205;-75
2022/06/14 05:41:30;;;;;;;4.23;2.10;;;;;;;;;;5114142;27;20205;-75
2022/06/14 05:44:02;;;;;;;7.90;2.57;;;;;;;;;;5112416;27;20328;-75
2022/06/14 05:46:32;;;;;;;4.53;2.13;;;;;;;;;;5096512;28;20283;-77
2022/06/14 05:49:03;;;;;;;6.20;1.93;;;;;;;;;;5096498;28;20273;-76
2022/06/14 05:51:33;;;;;;;6.07;2.27;;;;;;;;;;5119357;27;20212;-77
2022/06/14 05:54:02;;;;;;;4.00;1.97;;;;;;;;;;5110374;27;20198;-77
2022/06/14 05:56:32;;;;;;;3.73;1.90;;;;;;;;;;5108314;27;20583;-77
2022/06/14 05:59:03;;;;;;;4.53;2.03;;;;;;;;;;5102275;27;20213;-77
2022/06/14 06:01:34;;;;;;;4.07;1.90;;;;;;;;;;5123360;27;20251;-77
2022/06/14 06:04:05;;;;;;;4.22;1.85;;;;;;;;;;5116910;27;20202;-77
2022/06/14 06:06:33;;;;;;;6.15;2.20;;;;;;;;;;5110506;28;20304;-77
2022/06/14 06:09:02;;;;;;;4.38;2.05;;;;;;;;;;5111957;28;20205;-77
2022/06/14 06:11:32;;;;;;;3.35;1.95;;;;;;;;;;5106401;27;20233;-76
2022/06/14 06:14:03;;;;;;;3.88;1.75;;;;;;;;;;5117063;27;20289;-78
2022/06/14 06:16:34;;;;;;;6.00;2.30;;;;;;;;;;5097994;27;20289;-77
2022/06/14 06:19:05;;;;;;;3.42;1.65;;;;;;;;;;5104737;28;20202;-77
2022/06/14 06:21:34;;;;;;;3.65;1.92;;;;;;;;;;5105867;27;20392;-77
2022/06/14 06:24:06;;;;;;;3.63;1.80;;;;;;;;;;5118973;27;20211;-78
2022/06/14 06:26:35;;;;;;;4.20;1.90;;;;;;;;;;5104816;27;20285;-77
2022/06/14 06:29:05;;;;;;;3.08;1.52;;;;;;;;;;5114100;27;20290;-76
2022/06/14 06:31:35;;;;;;;5.15;1.98;;;;;;;;;;5113539;28;20234;-77
2022/06/14 06:34:06;;;;;;;3.38;1.80;;;;;;;;;;5099428;28;20302;-78
2022/06/14 06:36:40;;;;;;;5.70;2.03;;;;;;;;;;5111213;27;20247;-77
2022/06/14 06:39:12;;;;;;;5.28;2.08;;;;;;;;;;5112872;28;20285;-77
2022/06/14 06:44:31;;;;;;;5.88;1.95;;;;;;;;;;5097888;27;20225;-77
2022/06/14 06:47:02;;;;;;;4.97;2.05;;;;;;;;;;5104188;28;20214;-77
2022/06/14 06:49:36;;;;;;;3.35;1.77;;;;;;;;;;5109881;28;20293;-77
2022/06/14 06:52:05;;;;;;;4.43;2.20;;;;;;;;;;5111467;27;20296;-77
2022/06/14 06:54:36;;;;;;;5.50;1.95;;;;;;;;;;5118887;27;20232;-77
2022/06/14 06:57:05;;;;;;;4.68;1.70;;;;;;;;;;5112784;27;20280;-77
2022/06/14 06:59:35;;;;;;;9.48;2.00;;;;;;;;;;5109753;27;20208;-78
2022/06/14 07:02:05;;;;;;;4.30;1.75;;;;;;;;;;5111733;27;20262;-77
2022/06/14 07:07:22;;;;;;;5.38;1.90;;;;;;;;;;5113637;27;20228;-77
2022/06/14 07:09:52;;;;;;;4.97;2.00;;;;;;;;;;5106686;27;20239;-77
2022/06/14 07:12:21;;;;;;;4.60;2.05;;;;;;;;;;5112439;27;20315;-77
2022/06/14 07:14:50;;;;;;;5.47;1.90;;;;;;;;;;5114253;27;20233;-77
2022/06/14 07:17:19;;;;;;;6.18;1.90;;;;;;;;;;5113971;27;20294;-77
2022/06/14 07:19:50;;;;;;;3.47;1.90;;;;;;;;;;5105629;28;20281;-77
2022/06/14 07:22:20;;;;;;;4.10;1.67;;;;;;;;;;5103915;28;20194;-77
2022/06/14 07:24:53;;;;;;;3.53;2.10;;;;;;;;;;5098197;27;20268;-77
2022/06/14 07:27:22;;;;;;;5.72;2.08;;;;;;;;;;5113311;27;20670;-77
2022/06/14 07:29:52;;;;;;;5.47;2.20;;;;;;;;;;5103283;27;20197;-77
2022/06/14 07:32:21;;;;;;;4.97;2.00;;;;;;;;;;5105369;27;20275;-77
2022/06/14 07:34:50;;;;;;;4.93;1.98;;;;;;;;;;5103238;28;20229;-77
2022/06/14 07:37:20;;;;;;;7.18;2.17;;;;;;;;;;5107549;27;20654;-77
2022/06/14 07:39:55;;;;;;;5.18;2.00;;;;;;;;;;5112326;27;20590;-78
2022/06/14 07:42:26;;;;;;;3.35;1.80;;;;;;;;;;5105836;28;20284;-77
2022/06/14 07:44:55;;;;;;;5.13;2.17;;;;;;;;;;5110631;27;20257;-77
2022/06/14 07:47:26;;;;;;;5.10;1.95;;;;;;;;;;5113531;27;20252;-77
2022/06/14 07:49:58;;;;;;;6.68;2.35;;;;;;;;;;5115789;27;20216;-77
2022/06/14 07:52:28;;;;;;;6.90;2.03;;;;;;;;;;5114146;27;20292;-77
2022/06/14 07:54:59;;;;;;;6.00;2.22;;;;;;;;;;5119258;27;20232;-77
2022/06/14 07:57:28;;;;;;;16.65;2.15;;;;;;;;;;5113538;27;20288;-77
2022/06/14 07:59:57;;;;;;;6.57;2.03;;;;;;;;;;5108029;27;20228;-77
2022/06/14 08:02:28;;;;;;;4.85;1.90;;;;;;;;;;5112972;27;20224;-77
2022/06/14 08:05:00;;;;;;;4.03;2.00;;;;;;;;;;5103399;27;20226;-77
2022/06/14 08:07:29;;;;;;;7.00;2.05;;;;;;;;;;5118939;27;20305;-78
2022/06/14 08:09:58;;;;;;;5.25;2.38;;;;;;;;;;5112434;27;20280;-77
2022/06/14 08:12:31;;;;;;;5.97;2.00;;;;;;;;;;5110338;28;20218;-77
2022/06/14 08:15:01;;;;;;;5.65;1.80;;;;;;;;;;5105520;28;20225;-77
2022/06/14 08:17:33;;;;;;;7.05;1.98;;;;;;;;;;5111487;27;20261;-78
2022/06/14 08:20:04;;;;;;;5.60;1.95;;;;;;;;;;5104519;28;20285;-77
2022/06/14 08:22:34;;;;;;;3.45;1.85;;;;;;;;;;5110267;27;20209;-78
2022/06/14 08:25:03;;;;;;;6.55;1.88;;;;;;;;;;5108029;27;20882;-77
2022/06/14 08:27:33;;;;;;;4.63;1.80;;;;;;;;;;5108832;27;20222;-77
2022/06/14 08:30:02;;;;;;;5.90;2.10;;;;;;;;;;5102605;27;20712;-77
2022/06/14 08:32:31;;;;;;;5.22;1.77;;;;;;;;;;5111617;27;20285;-78
2022/06/14 08:35:02;;;;;;;5.07;1.90;;;;;;;;;;5120641;27;20317;-78
2022/06/14 08:37:33;;;;;;;3.30;1.88;;;;;;;;;;5098062;28;20277;-78
2022/06/14 08:40:03;;;;;;;3.63;1.80;;;;;;;;;;5091351;28;20237;-78
2022/06/14 08:42:32;;;;;;;3.55;1.85;;;;;;;;;;5124102;27;22050;-78
2022/06/14 08:45:00;;;;;;;6.43;2.28;;;;;;;;;;5106306;27;20267;-77
2022/06/14 08:47:37;;;;;;;4.55;2.10;;;;;;;;;;5115744;27;20308;-77
2022/06/14 08:50:10;;;;;;;4.45;2.40;;;;;;;;;;5112569;27;20205;-77
2022/06/14 08:52:51;;;;;;;7.63;2.20;;;;;;;;;;5100855;28;20731;-77
2022/06/14 08:55:36;;;;;;;5.45;2.30;;;;;;;;;;5099860;28;20600;-77
2022/06/14 08:58:12;;;;;;;6.60;2.42;;;;;;;;;;5052433;28;20282;-77
2022/06/14 09:00:49;;;;;;;8.20;2.40;;;;;;;;;;5063972;28;20250;-78
2022/06/14 09:03:38;;;;;;;7.75;2.40;;;;;;;;;;5062568;28;20202;-77
2022/06/14 09:06:24;;;;;;;4.93;2.17;;;;;;;;;;5056425;28;20710;-77
2022/06/14 09:09:02;;;;;;;8.93;2.50;;;;;;;;;;5067148;28;20306;-77
2022/06/14 09:11:44;;;;;;;5.00;2.22;;;;;;;;;;5059724;28;20203;-77
2022/06/14 09:14:30;;;;;;;4.28;2.10;;;;;;;;;;5048430;28;20290;-77
2022/06/14 09:17:08;;;;;;;4.68;2.17;;;;;;;;;;4969684;28;20249;-77
2022/06/14 09:19:44;;;;;;;5.22;2.17;;;;;;;;;;4969767;28;20233;-78
2022/06/14 09:22:21;;;;;;;4.15;2.20;;;;;;;;;;4987112;28;20201;-78
2022/06/14 09:25:07;;;;;;;4.20;1.92;;;;;;;;;;4978420;28;20244;-78
2022/06/14 09:27:46;;;;;;;6.68;2.10;;;;;;;;;;4983521;28;20313;-77
2022/06/14 09:30:32;;;;;;;5.05;2.03;;;;;;;;;;4988513;28;20285;-77
2022/06/14 09:33:15;;;;;;;5.28;2.28;;;;;;;;;;4987587;28;20245;-77
2022/06/14 09:35:50;;;;;;;5.80;2.30;;;;;;;;;;5014703;28;20302;-78
2022/06/14 09:38:23;;;;;;;5.63;1.95;;;;;;;;;;5032744;28;20235;-78
2022/06/14 09:40:58;;;;;;;6.00;2.17;;;;;;;;;;5054858;28;20238;-78
2022/06/14 09:43:40;;;;;;;4.50;2.30;;;;;;;;;;5042512;28;20671;-77
2022/06/14 09:46:26;;;;;;;3.80;2.17;;;;;;;;;;5043868;28;20284;-77
2022/06/14 09:49:04;;;;;;;5.35;2.30;;;;;;;;;;5042984;28;20810;-77
2022/06/14 09:51:46;;;;;;;5.80;2.25;;;;;;;;;;5034949;28;20249;-77
2022/06/14 09:54:28;;;;;;;4.60;2.20;;;;;;;;;;5081150;27;20223;-78
2022/06/14 09:57:22;;;;;;;4.53;2.00;;;;;;;;;;5100387;28;20660;-78
2022/06/14 10:00:15;;;;;;;5.30;2.13;;;;;;;;;;5105810;28;20198;-78
2022/06/14 10:02:56;;;;;;;4.95;2.30;;;;;;;;;;5107306;28;20232;-77
2022/06/14 10:05:43;;;;;;;4.15;2.20;;;;;;;;;;5102870;28;20198;-78
2022/06/14 10:08:41;;;;;;;3.92;2.13;;;;;;;;;;5107800;27;20329;-78
2022/06/14 10:14:27;;;;;;;3.53;1.95;;;;;;;;;;5006678;28;20243;-78
2022/06/14 10:17:07;;;;;;;3.88;2.13;;;;;;;;;;5030923;28;20200;-78
2022/06/14 10:19:41;;;;;;;4.93;2.05;;;;;;;;;;5030445;28;20758;-77
2022/06/14 10:22:14;;;;;;;5.03;2.10;;;;;;;;;;5031841;28;20223;-77
2022/06/14 10:24:45;;;;;;;3.85;2.28;;;;;;;;;;5030183;28;20215;-77
2022/06/14 10:30:16;;;;;;;5.80;1.90;;;;;;;;;;5028182;28;20255;-78
2022/06/14 10:33:01;;;;;;;3.38;2.00;;;;;;;;;;5030064;28;20201;-77
2022/06/14 10:35:43;;;;;;;4.43;1.85;;;;;;;;;;4970520;28;20229;-78
2022/06/14 10:38:28;;;;;;;3.30;1.90;;;;;;;;;;4957894;28;20326;-78
2022/06/14 10:40:58;;;;;;;3.85;2.22;;;;;;;;;;4970967;28;20207;-78
2022/06/14 10:43:28;;;;;;;3.40;2.13;;;;;;;;;;4986121;28;20209;-77
2022/06/14 10:45:57;;;;;;;4.68;1.90;;;;;;;;;;5042436;28;20310;-78
2022/06/14 10:48:36;;;;;;;3.45;1.80;;;;;;;;;;5057359;28;20223;-78
2022/06/14 10:51:17;;;;;;;4.93;1.95;;;;;;;;;;5050268;28;20207;-78
2022/06/14 10:53:50;;;;;;;6.95;2.20;;;;;;;;;;5034452;28;20287;-77
2022/06/14 10:56:29;;;;;;;4.72;1.92;;;;;;;;;;5030788;28;20208;-78
2022/06/14 10:59:11;;;;;;;5.20;2.13;;;;;;;;;;5045741;28;20701;-78
2022/06/14 11:01:46;;;;;;;6.45;2.30;;;;;;;;;;5048708;28;20318;-78
2022/06/14 11:04:22;;;;;;;4.90;1.98;;;;;;;;;;5040820;28;20199;-78
2022/06/14 11:07:04;;;;;;;4.47;2.28;;;;;;;;;;5042710;28;20298;-78
2022/06/14 11:09:36;;;;;;;4.05;1.88;;;;;;;;;;5052361;28;20246;-78
2022/06/14 11:12:08;;;;;;;4.47;1.90;;;;;;;;;;5057734;27;20732;-78
2022/06/14 11:14:39;;;;;;;3.63;1.95;;;;;;;;;;5108441;27;20256;-78
2022/06/14 11:17:24;;;;;;;3.92;1.77;;;;;;;;;;5112861;27;20285;-78
2022/06/14 11:19:58;;;;;;;4.80;2.22;;;;;;;;;;5104866;27;20226;-77
2022/06/14 11:22:36;;;;;;;2.88;1.80;;;;;;;;;;5101019;28;20285;-78
2022/06/14 11:25:09;;;;;;;5.63;2.20;;;;;;;;;;5111574;27;20819;-78
2022/06/14 11:27:40;;;;;;;3.60;1.90;;;;;;;;;;5106306;27;20289;-78
2022/06/14 11:30:14;;;;;;;4.03;1.98;;;;;;;;;;5111870;27;20264;-78
2022/06/14 11:32:46;;;;;;;5.50;2.25;;;;;;;;;;5120120;27;20218;-78
2022/06/14 11:35:24;;;;;;;5.07;2.00;;;;;;;;;;5103784;28;20208;-78
2022/06/14 11:38:01;;;;;;;3.58;1.98;;;;;;;;;;5111535;27;20280;-77
2022/06/14 11:40:31;;;;;;;3.47;1.77;;;;;;;;;;5100444;28;20280;-77
2022/06/14 11:43:18;;;;;;;6.47;1.90;;;;;;;;;;5118061;27;20249;-78
2022/06/14 11:45:50;;;;;;;5.55;2.00;;;;;;;;;;5108638;27;20304;-78
2022/06/14 11:48:21;;;;;;;5.55;1.92;;;;;;;;;;5106458;28;20248;-78
2022/06/14 11:50:52;;;;;;;4.07;1.80;;;;;;;;;;5112126;27;20204;-77
2022/06/14 11:53:27;;;;;;;2.08;1.70;;;;;;;;;;5108282;27;20254;-77
2022/06/14 11:55:56;;;;;;;3.50;1.88;;;;;;;;;;5109764;27;20656;-78
2022/06/14 11:58:37;;;;;;;3.05;1.58;;;;;;;;;;5102825;28;20652;-77
2022/06/14 12:01:14;;;;;;;3.80;1.90;;;;;;;;;;5109700;27;20265;-78
2022/06/14 12:03:49;;;;;;;4.47;1.88;;;;;;;;;;5099026;27;20259;-78
2022/06/14 12:06:21;;;;;;;3.50;2.03;;;;;;;;;;5106749;28;20198;-77
2022/06/14 12:09:06;;;;;;;6.45;2.45;;;;;;;;;;5107383;27;20316;-78
2022/06/14 12:11:36;;;;;;;4.60;1.77;;;;;;;;;;5097138;27;20285;-77
2022/06/14 12:14:27;;;;;;;3.50;2.00;;;;;;;;;;5112589;27;20572;-77
2022/06/14 12:16:57;;;;;;;3.63;1.77;;;;;;;;;;5102961;27;20297;-78
2022/06/14 12:19:25;;;;;;;4.78;2.05;;;;;;;;;;5111111;28;20226;-78
2022/06/14 12:21:58;;;;;;;3.58;1.80;;;;;;;;;;5101776;27;20212;-77
2022/06/14 12:27:18;;;;;;;3.38;2.00;;;;;;;;;;5109538;27;20202;-78
2022/06/14 12:29:47;;;;;;;3.42;2.00;;;;;;;;;;5097165;27;20226;-78
2022/06/14 12:32:18;;;;;;;3.67;2.42;;;;;;;;;;5104063;28;20292;-78
2022/06/14 12:34:47;;;;;;;3.75;1.52;;;;;;;;;;5102177;28;20281;-78
2022/06/14 12:37:22;;;;;;;3.03;1.60;;;;;;;;;;5109256;28;20297;-78
2022/06/14 12:39:52;;;;;;;4.40;1.52;;;;;;;;;;5091250;28;20262;-78
2022/06/14 12:42:23;;;;;;;5.32;2.03;;;;;;;;;;5109463;27;20308;-78
2022/06/14 12:44:55;;;;;;;3.42;1.75;;;;;;;;;;5131402;27;20321;-77
2022/06/14 12:47:26;;;;;;;4.07;1.77;;;;;;;;;;5104645;27;20194;-78
2022/06/14 12:49:55;;;;;;;3.83;2.00;;;;;;;;;;5109197;27;20308;-78
2022/06/14 12:52:26;;;;;;;3.05;2.00;;;;;;;;;;5124421;27;20213;-78
2022/06/14 12:54:58;;;;;;;4.15;2.30;;;;;;;;;;5112003;28;20197;-78
2022/06/14 12:57:30;;;;;;;4.80;2.50;;;;;;;;;;5102150;27;20226;-77
2022/06/14 12:59:59;;;;;;;3.80;1.80;;;;;;;;;;5106402;28;20254;-78
2022/06/14 13:02:27;;;;;;;3.25;1.80;;;;;;;;;;5121850;27;20216;-78
2022/06/14 13:04:58;;;;;;;4.78;2.03;;;;;;;;;;5094373;28;20255;-78
2022/06/14 13:07:30;;;;;;;2.15;1.75;;;;;;;;;;5110447;28;20281;-78
2022/06/14 13:10:20;;;;;;;5.43;2.13;;;;;;;;;;5090520;28;20333;-78
2022/06/14 13:12:55;;;;;;;4.40;1.85;;;;;;;;;;5123164;28;20883;-78
2022/06/14 13:15:27;;;;;;;3.30;1.90;;;;;;;;;;5115441;28;20220;-78
2022/06/14 13:18:01;;;;;;;3.15;2.08;;;;;;;;;;5113127;28;20300;-78
2022/06/14 13:20:36;;;;;;;4.95;2.00;;;;;;;;;;5114886;28;20281;-77
2022/06/14 13:23:11;;;;;;;2.70;1.80;;;;;;;;;;5110718;28;20284;-78
2022/06/14 13:25:57;;;;;;;4.05;1.80;;;;;;;;;;5111258;28;20232;-77
2022/06/14 13:28:33;;;;;;;4.35;1.90;;;;;;;;;;5117141;28;20234;-77
2022/06/14 13:31:05;;;;;;;2.90;1.60;;;;;;;;;;5116510;28;20201;-77
2022/06/14 13:33:38;;;;;;;3.30;1.60;;;;;;;;;;5131401;27;20229;-78
2022/06/14 13:36:10;;;;;;;3.42;1.70;;;;;;;;;;5107070;28;20282;-77
2022/06/14 13:38:40;;;;;;;4.47;1.80;;;;;;;;;;5120242;27;20228;-78
2022/06/14 13:41:12;;;;;;;3.85;1.75;;;;;;;;;;5097683;28;20205;-78
2022/06/14 13:43:46;;;;;;;5.65;1.92;;;;;;;;;;5129414;27;20248;-78
2022/06/14 13:46:19;;;;;;;5.25;1.92;;;;;;;;;;5121646;27;20280;-78
2022/06/14 13:48:49;;;;;;;6.35;1.80;;;;;;;;;;5115065;27;20691;-78
2022/06/14 13:51:26;;;;;;;3.28;1.60;;;;;;;;;;5127654;27;20309;-78
2022/06/14 13:53:56;;;;;;;3.42;1.90;;;;;;;;;;5118889;27;20235;-78
2022/06/14 13:56:25;;;;;;;3.33;1.67;;;;;;;;;;5135321;27;20280;-78
2022/06/14 13:58:57;;;;;;;2.78;1.67;;;;;;;;;;5132833;27;20209;-77
2022/06/14 14:01:26;;;;;;;2.20;1.60;;;;;;;;;;5127925;27;20256;-78
2022/06/14 14:03:57;;;;;;;4.22;1.73;;;;;;;;;;5121512;27;20684;-78
2022/06/14 14:06:27;;;;;;;3.60;1.58;;;;;;;;;;5096518;27;20305;-78
2022/06/14 14:09:10;;;;;;;4.35;1.75;;;;;;;;;;5107590;27;20238;-78
2022/06/14 14:11:42;;;;;;;5.68;1.67;;;;;;;;;;5094051;28;20231;-78
2022/06/14 14:14:18;;;;;;;4.68;1.63;;;;;;;;;;5093994;27;20285;-78
2022/06/14 14:16:47;;;;;;;3.55;1.73;;;;;;;;;;5093737;28;20651;-78
2022/06/14 14:19:20;;;;;;;4.43;2.00;;;;;;;;;;5107878;27;20284;-78
2022/06/14 14:21:50;;;;;;;2.95;1.98;;;;;;;;;;5134547;27;20201;-78
2022/06/14 14:24:27;;;;;;;3.40;1.80;;;;;;;;;;5134126;27;20299;-78
2022/06/14 14:26:59;;;;;;;3.85;1.75;;;;;;;;;;5134475;27;20200;-78
2022/06/14 14:29:30;;;;;;;5.70;1.88;;;;;;;;;;5131337;27;20256;-78
2022/06/14 14:31:59;;;;;;;5.10;1.80;;;;;;;;;;5123255;27;20205;-78
2022/06/14 14:34:29;;;;;;;2.10;1.50;;;;;;;;;;5122558;27;20229;-78
2022/06/14 14:36:59;;;;;;;5.55;1.90;;;;;;;;;;5098407;27;20653;-78
2022/06/14 14:39:37;;;;;;;3.25;1.73;;;;;;;;;;5102174;27;20229;-78
2022/06/14 14:42:06;;;;;;;3.83;1.90;;;;;;;;;;5126561;27;20233;-78
2022/06/14 14:44:38;;;;;;;4.18;1.80;;;;;;;;;;5113448;27;20711;-78
2022/06/14 14:47:07;;;;;;;2.15;1.80;;;;;;;;;;5124666;27;20292;-78
2022/06/14 14:49:40;;;;;;;3.92;1.98;;;;;;;;;;5103950;28;20250;-78
2022/06/14 14:52:13;;;;;;;3.15;1.75;;;;;;;;;;5112628;28;20223;-78
2022/06/14 14:54:44;;;;;;;3.47;1.80;;;;;;;;;;5126945;27;20209;-78
2022/06/14 14:57:14;;;;;;;4.40;1.77;;;;;;;;;;5100441;27;20252;-78
2022/06/14 14:59:45;;;;;;;4.20;1.70;;;;;;;;;;5100229;28;20882;-78
2022/06/14 15:05:23;;;;;;;7.07;2.05;;;;;;;;;;5094053;27;20775;-78
2022/06/14 15:07:53;;;;;;;5.85;2.00;;;;;;;;;;5128021;27;20274;-78
2022/06/14 15:10:22;;;;;;;3.05;1.65;;;;;;;;;;5120952;27;20233;-78
2022/06/14 15:12:51;;;;;;;4.70;2.00;;;;;;;;;;5120164;27;20197;-78
2022/06/14 15:15:21;;;;;;;6.20;2.00;;;;;;;;;;5105266;27;20669;-78
2022/06/14 15:20:37;;;;;;;3.53;1.70;;;;;;;;;;5132359;27;20567;-78
2022/06/14 15:23:05;;;;;;;3.67;1.50;;;;;;;;;;5132184;27;20296;-78
2022/06/14 15:25:33;;;;;;;4.65;1.80;;;;;;;;;;5120626;27;20576;-78
2022/06/14 15:28:14;;;;;;;4.68;1.50;;;;;;;;;;5098538;28;20598;-78
2022/06/14 15:30:44;;;;;;;3.03;1.60;;;;;;;;;;5105204;27;20312;-78
2022/06/14 15:33:19;;;;;;;2.60;1.67;;;;;;;;;;5112817;27;20721;-78
2022/06/14 15:35:52;;;;;;;3.53;1.67;;;;;;;;;;5107637;27;20258;-78
2022/06/14 15:38:23;;;;;;;7.00;2.28;;;;;;;;;;5091602;27;20240;-78
2022/06/14 15:41:00;;;;;;;4.95;1.70;;;;;;;;;;5114552;27;20194;-78
2022/06/14 15:43:29;;;;;;;3.75;1.55;;;;;;;;;;5104210;27;20201;-78